Time;durP1;ratioP1;P1;durP2;ratioP2;P2;SDS_P1;SDS_P2;PMS_P1;PMS_P2;Temp;Humidity;BMP_temperature;BMP_pressure;BME280_temperature;BME280_humidity;BME280_pressure;Samples;Min_cycle;Max_cycle;Signal;HPM_P1;HPM_P2
2022/05/29 00:00:56;;;;;;;4.10;0.90;;;;;;;10.65;49.40;97612.75;9896182;30;20081;-75
2022/05/29 00:06:17;;;;;;;2.22;0.47;;;;;;;10.56;49.92;97603.84;9920870;29;20410;-75
2022/05/29 00:11:38;;;;;;;3.53;0.77;;;;;;;10.46;49.91;97600.41;9896517;30;20048;-75
2022/05/29 00:16:59;;;;;;;3.28;1.02;;;;;;;10.43;49.89;97596.03;9920933;29;20080;-75
2022/05/29 00:22:21;;;;;;;4.18;0.80;;;;;;;10.41;50.45;97597.94;9920929;29;20527;-75
2022/05/29 00:27:42;;;;;;;2.00;0.57;;;;;;;10.30;50.48;97588.91;9907706;30;20071;-75
2022/05/29 00:33:07;;;;;;;3.63;0.60;;;;;;;10.22;50.95;97588.34;9919964;29;20455;-75
2022/05/29 00:38:30;;;;;;;3.85;0.70;;;;;;;10.15;50.92;97582.97;9920054;29;20047;-75
2022/05/29 00:44:18;;;;;;;5.25;0.73;;;;;;;10.21;51.09;97577.78;9898289;30;20411;-75
2022/05/29 00:50:09;;;;;;;3.03;0.80;;;;;;;10.18;51.79;97576.19;9916175;29;20410;-75
2022/05/29 00:55:30;;;;;;;1.38;0.40;;;;;;;10.11;51.47;97563.16;9921467;29;20044;-75
2022/05/29 01:00:52;;;;;;;2.38;0.50;;;;;;;10.07;51.69;97560.13;9927256;29;20176;-74
2022/05/29 01:06:13;;;;;;;5.13;0.65;;;;;;;10.00;51.77;97553.41;9936623;29;20405;-76
2022/05/29 01:11:52;;;;;;;1.88;0.60;;;;;;;9.97;52.47;97552.53;9951358;29;20070;-76
2022/05/29 01:17:25;;;;;;;2.92;0.52;;;;;;;9.90;52.88;97553.44;9961888;29;20118;-75
2022/05/29 01:23:33;;;;;;;2.65;0.60;;;;;;;9.87;52.92;97548.34;9963682;29;20126;-75
2022/05/29 01:28:55;;;;;;;2.10;0.40;;;;;;;9.86;52.55;97555.97;9936712;29;20063;-75
2022/05/29 01:50:29;;;;;;;1.70;0.40;;;;;;;9.71;53.33;97556.34;9947902;29;20059;-75
2022/05/29 01:55:55;;;;;;;2.78;0.50;;;;;;;9.68;53.21;97549.19;9962265;29;20127;-75
2022/05/29 02:01:16;;;;;;;3.70;0.50;;;;;;;9.81;53.66;97551.44;9949699;29;20125;-75
2022/05/29 02:12:22;;;;;;;3.85;0.90;;;;;;;9.97;54.07;97541.38;9945397;29;20121;-75
2022/05/29 02:18:17;;;;;;;6.35;0.82;;;;;;;9.97;53.64;97538.59;9961168;29;20051;-75
2022/05/29 02:24:19;;;;;;;3.45;0.60;;;;;;;9.91;54.23;97531.88;9939242;29;20062;-75
2022/05/29 02:29:40;;;;;;;3.22;0.60;;;;;;;9.80;54.36;97535.31;9959941;29;20450;-74
2022/05/29 02:35:09;;;;;;;6.13;0.77;;;;;;;9.69;54.55;97540.22;9935176;29;20050;-75
2022/05/29 02:40:38;;;;;;;3.97;0.47;;;;;;;9.62;54.63;97543.19;9961497;29;20397;-75
2022/05/29 02:47:47;;;;;;;2.85;0.60;;;;;;;9.59;54.89;97520.03;9945201;29;20050;-75
2022/05/29 02:53:13;;;;;;;4.60;0.60;;;;;;;9.55;54.74;97521.78;9930982;29;20200;-75
2022/05/29 02:58:34;;;;;;;5.47;0.50;;;;;;;9.50;55.17;97518.00;9906022;29;20227;-75
2022/05/29 03:04:14;;;;;;;3.63;0.73;;;;;;;9.36;55.29;97508.69;9921318;29;20063;-76
2022/05/29 03:10:24;;;;;;;2.60;0.43;;;;;;;9.27;56.01;97513.00;9940692;29;20081;-76
2022/05/29 03:16:12;;;;;;;2.42;0.50;;;;;;;9.31;56.11;97504.91;9898420;29;20116;-75
2022/05/29 03:22:05;;;;;;;2.78;0.68;;;;;;;9.40;55.83;97504.13;9953014;29;20099;-75
2022/05/29 03:28:43;;;;;;;2.95;0.52;;;;;;;9.51;56.01;97499.25;9959764;29;20049;-75
2022/05/29 03:34:05;;;;;;;5.32;0.50;;;;;;;9.65;55.93;97497.38;9921624;29;20103;-76
2022/05/29 03:39:34;;;;;;;2.65;0.50;;;;;;;9.83;55.21;97493.03;9897641;29;20452;-74
2022/05/29 03:45:01;;;;;;;1.98;0.40;;;;;;;9.97;55.28;97493.97;9932668;29;20104;-75
2022/05/29 03:50:23;;;;;;;3.05;0.52;;;;;;;10.23;55.25;97497.03;9934496;29;20095;-77
2022/05/29 03:55:45;;;;;;;2.67;0.45;;;;;;;10.53;54.77;97490.63;9926571;29;20054;-75
2022/05/29 04:01:06;;;;;;;3.70;0.50;;;;;;;10.59;54.38;97485.41;9892634;29;20058;-75
2022/05/29 04:07:05;;;;;;;2.13;0.50;;;;;;;10.64;54.24;97485.69;9912007;30;20051;-79
2022/05/29 04:12:27;;;;;;;1.27;0.50;;;;;;;10.58;54.16;97489.53;9916187;30;20481;-76
2022/05/29 04:17:48;;;;;;;6.00;0.90;;;;;;;10.55;54.65;97481.66;9947184;29;20051;-77
2022/05/29 04:23:42;;;;;;;4.47;0.60;;;;;;;10.58;54.90;97483.97;9929774;29;20054;-76
2022/05/29 04:29:04;;;;;;;3.85;1.15;;;;;;;10.68;54.75;97477.56;9934765;29;20153;-76
2022/05/29 04:34:25;;;;;;;3.00;1.48;;;;;;;10.73;54.78;97473.69;9953178;29;20043;-76
2022/05/29 04:39:46;;;;;;;2.70;0.77;;;;;;;10.91;54.24;97469.25;9951176;29;20043;-77
2022/05/29 04:45:11;;;;;;;4.22;1.10;;;;;;;11.17;53.71;97470.13;9929895;29;20055;-76
2022/05/29 04:50:35;;;;;;;4.07;1.10;;;;;;;11.50;53.21;97474.88;9948019;29;20047;-76
2022/05/29 04:56:04;;;;;;;3.03;1.10;;;;;;;11.89;52.93;97469.50;9956200;29;20051;-77
2022/05/29 05:01:25;;;;;;;3.63;1.10;;;;;;;12.06;52.78;97476.72;9944575;29;20076;-78
2022/05/29 05:07:14;;;;;;;4.13;0.73;;;;;;;12.32;52.29;97476.16;9941075;29;20058;-77
2022/05/29 05:12:35;;;;;;;2.83;0.63;;;;;;;12.70;51.33;97468.44;9957905;29;20047;-77
2022/05/29 05:17:56;;;;;;;4.57;0.73;;;;;;;12.98;50.40;97468.53;9956050;29;20049;-77
2022/05/29 05:23:50;;;;;;;6.35;1.25;;;;;;;13.44;49.09;97485.03;9949920;29;20073;-78
2022/05/29 05:29:39;;;;;;;4.38;1.13;;;;;;;13.75;48.85;97475.38;9978645;29;20055;-77
2022/05/29 05:35:03;;;;;;;4.10;1.13;;;;;;;14.04;47.89;97469.13;9945652;29;20410;-78
2022/05/29 05:41:01;;;;;;;7.18;1.30;;;;;;;14.81;47.07;97477.75;9955211;29;20039;-83
2022/05/29 05:46:56;;;;;;;5.35;1.42;;;;;;;15.78;44.65;97483.47;9942156;29;20092;-75
2022/05/29 05:52:49;;;;;;;4.35;1.58;;;;;;;17.20;43.27;97485.69;9949727;29;20050;-75
2022/05/29 05:58:39;;;;;;;6.13;1.52;;;;;;;18.04;41.59;97481.66;9948830;29;20486;-75
2022/05/29 06:03:59;;;;;;;4.05;1.65;;;;;;;17.05;39.59;97481.59;9948426;29;20062;-75
2022/05/29 06:09:49;;;;;;;5.35;1.20;;;;;;;16.74;40.77;97494.53;9948185;29;20054;-76
2022/05/29 06:15:10;;;;;;;2.92;1.02;;;;;;;16.31;40.94;97489.97;9947513;29;20059;-77
2022/05/29 06:20:31;;;;;;;6.28;1.13;;;;;;;16.68;41.70;97488.63;9934526;29;20487;-76
2022/05/29 06:25:52;;;;;;;6.28;1.10;;;;;;;18.18;41.14;97473.66;9933292;29;20054;-77
2022/05/29 06:31:12;;;;;;;5.03;1.30;;;;;;;20.23;38.29;97479.00;9897004;30;20104;-77
2022/05/29 06:36:34;;;;;;;4.05;0.95;;;;;;;19.90;37.17;97477.47;9896503;29;20043;-77
2022/05/29 06:41:54;;;;;;;5.35;0.90;;;;;;;19.67;36.23;97476.13;9909246;29;20055;-77
2022/05/29 06:47:18;;;;;;;5.38;1.20;;;;;;;19.48;35.07;97471.31;9908723;30;20054;-77
2022/05/29 06:52:38;;;;;;;5.13;1.00;;;;;;;24.97;32.53;97466.06;9908429;29;20494;-78
2022/05/29 06:57:59;;;;;;;3.10;0.88;;;;;;;27.76;25.17;97472.13;9883858;29;20501;-77
2022/05/29 07:08:59;;;;;;;6.00;1.00;;;;;;;23.89;24.92;97470.09;9908509;29;20108;-77
2022/05/29 07:14:20;;;;;;;4.32;0.95;;;;;;;23.36;25.79;97475.16;9883263;29;20047;-77
2022/05/29 07:19:41;;;;;;;4.47;1.10;;;;;;;24.37;25.05;97474.88;9895358;30;20051;-77
2022/05/29 07:25:03;;;;;;;2.60;1.08;;;;;;;26.52;23.16;97450.16;9907804;29;20051;-77
2022/05/29 07:30:24;;;;;;;3.37;1.00;;;;;;;25.01;23.52;97459.66;9895316;30;20487;-77
2022/05/29 07:35:44;;;;;;;3.60;1.00;;;;;;;23.55;24.39;97456.16;9882666;30;20402;-77
2022/05/29 07:43:18;;;;;;;6.10;1.27;;;;;;;24.34;25.24;97451.31;9916231;29;20051;-77
2022/05/29 07:46:46;;;;;;;5.32;1.58;;;;;;;30.47;21.59;97455.75;9947113;29;20115;-78
2022/05/29 07:52:06;;;;;;;6.28;1.42;;;;;;;34.91;18.91;97458.59;9931929;29;20058;-81
2022/05/29 07:57:28;;;;;;;2.65;1.08;;;;;;;41.09;12.72;97454.66;9944345;29;20482;-78
2022/05/29 08:02:48;;;;;;;5.43;1.23;;;;;;;36.57;13.15;97457.47;9931583;29;20066;-80
2022/05/29 08:08:10;;;;;;;5.15;1.20;;;;;;;38.19;11.04;97457.66;9911442;29;20104;-81
2022/05/29 08:13:33;;;;;;;3.80;0.98;;;;;;;39.06;11.56;97449.75;9925540;29;20043;-80
2022/05/29 08:18:55;;;;;;;4.65;1.00;;;;;;;39.64;11.31;97445.25;9924249;29;20043;-80
2022/05/29 08:36:00;;;;;;;2.95;0.80;;;;;;;46.26;5.15;97432.28;9903418;29;20051;-80
2022/05/29 08:41:37;;;;;;;4.60;0.70;;;;;;;42.89;6.09;97429.38;9888496;29;20383;-81
2022/05/29 08:47:01;;;;;;;4.45;0.90;;;;;;;45.54;6.08;97423.22;9913010;29;20058;-81
2022/05/29 08:52:28;;;;;;;4.85;0.82;;;;;;;46.17;4.64;97418.19;9888812;30;20051;-81
2022/05/29 08:58:04;;;;;;;2.55;0.82;;;;;;;43.01;5.59;97413.88;9900413;29;20047;-77
2022/05/29 09:03:53;;;;;;;3.93;0.70;;;;;;;37.31;8.21;97410.78;9913173;29;20083;-77
2022/05/29 09:09:35;;;;;;;3.22;0.70;;;;;;;39.11;8.30;97415.22;9900188;29;20085;-77
2022/05/29 09:15:16;;;;;;;3.70;0.63;;;;;;;41.78;6.53;97399.94;9915454;29;20055;-77
2022/05/29 09:21:11;;;;;;;5.10;0.90;;;;;;;46.66;5.34;97396.44;9936843;29;20059;-81
2022/05/29 09:26:36;;;;;;;5.38;0.52;;;;;;;50.07;4.12;97381.66;9923794;29;20406;-80
2022/05/29 09:31:58;;;;;;;3.75;0.80;;;;;;;50.34;3.00;97382.00;9924116;29;20566;-78
2022/05/29 09:38:12;;;;;;;3.40;0.60;;;;;;;45.11;4.37;97366.97;9923715;29;20047;-80
2022/05/29 09:43:32;;;;;;;2.47;0.65;;;;;;;45.09;4.46;97359.00;9914210;29;20066;-81
2022/05/29 09:54:54;;;;;;;6.13;0.75;;;;;;;36.37;8.82;97334.06;9948764;29;20066;-79
2022/05/29 10:00:37;;;;;;;2.35;0.60;;;;;;;36.57;8.58;97326.69;9935713;29;20058;-79
2022/05/29 10:06:31;;;;;;;4.88;0.70;;;;;;;33.42;10.31;97323.59;9958126;29;20505;-78
2022/05/29 10:11:58;;;;;;;5.55;0.65;;;;;;;29.29;12.61;97325.09;9954853;29;20095;-77
2022/05/29 10:17:28;;;;;;;2.80;0.60;;;;;;;27.75;13.50;97315.16;9956433;29;20496;-76
2022/05/29 10:22:52;;;;;;;3.95;0.50;;;;;;;27.27;13.47;97300.38;9968537;29;20054;-76
2022/05/29 10:28:15;;;;;;;3.05;0.52;;;;;;;26.98;14.04;97288.31;9955169;29;20042;-76
2022/05/29 10:33:37;;;;;;;2.70;0.50;;;;;;;26.47;13.99;97291.38;9943845;29;20150;-79
2022/05/29 10:39:23;;;;;;;2.17;0.30;;;;;;;24.96;14.26;97289.75;9957938;29;20476;-79
2022/05/29 10:44:46;;;;;;;3.05;0.50;;;;;;;24.60;15.19;97291.03;9959909;29;20558;-78
2022/05/29 10:50:07;;;;;;;2.47;0.50;;;;;;;24.18;15.58;97300.75;9942073;29;20142;-78
2022/05/29 10:56:08;;;;;;;3.38;0.30;;;;;;;23.71;17.02;97325.31;9996529;29;20050;-78
2022/05/29 11:07:35;;;;;;;2.30;0.40;;;;;;;20.32;21.40;97323.34;9919856;29;20047;-73
2022/05/29 11:13:26;;;;;;;2.45;0.50;;;;;;;18.85;24.57;97330.91;9932422;29;20379;-73
2022/05/29 11:19:06;;;;;;;1.50;0.40;;;;;;;18.02;26.66;97332.63;9922092;29;20050;-73
2022/05/29 11:24:35;;;;;;;1.10;0.30;;;;;;;17.31;28.70;97363.41;9925713;29;20157;-73
2022/05/29 11:30:18;;;;;;;2.35;0.30;;;;;;;16.94;30.41;97336.00;9942214;29;20108;-73
2022/05/29 11:36:02;;;;;;;1.50;0.30;;;;;;;16.80;31.67;97361.56;9923975;29;20051;-76
2022/05/29 11:41:40;;;;;;;4.05;0.80;;;;;;;16.56;36.08;97378.25;9939165;29;20060;-75
2022/05/29 11:52:48;;;;;;;3.28;0.45;;;;;;;15.05;38.62;97391.72;9904793;29;20047;-74
2022/05/29 11:58:35;;;;;;;0.75;0.20;;;;;;;14.78;42.16;97392.63;9894678;30;20424;-75
2022/05/29 12:04:13;;;;;;;1.52;0.30;;;;;;;14.03;44.32;97332.97;9907527;29;20059;-76
2022/05/29 12:09:38;;;;;;;2.00;0.35;;;;;;;14.44;44.34;97327.16;9884107;29;20108;-77
2022/05/29 12:15:02;;;;;;;1.30;0.30;;;;;;;15.33;43.64;97318.41;9894653;29;20062;-78
2022/05/29 12:20:41;;;;;;;1.90;0.30;;;;;;;17.00;42.15;97322.13;9906774;29;20067;-77
2022/05/29 12:26:06;;;;;;;3.60;0.30;;;;;;;18.21;40.46;97325.47;9917335;29;20053;-82
2022/05/29 12:31:40;;;;;;;1.48;0.35;;;;;;;19.03;39.69;97339.91;9944073;29;20051;-80
2022/05/29 12:37:13;;;;;;;1.17;0.30;;;;;;;19.29;36.99;97322.91;9930833;29;20058;-81
2022/05/29 12:42:46;;;;;;;;;;;;;;;19.14;37.21;97315.47;9931467;29;20051;-80
2022/05/29 12:48:23;;;;;;;2.53;0.30;;;;;;;19.30;36.84;97326.47;9931087;29;19925;-84
2022/05/29 12:54:16;;;;;;;3.00;0.28;;;;;;;19.82;36.79;97315.09;9948122;29;20547;-83
2022/05/29 13:00:14;;;;;;;0.93;0.15;;;;;;;20.22;35.69;97310.38;9932953;29;20078;-82
2022/05/29 13:06:00;;;;;;;1.20;0.20;;;;;;;20.51;32.62;97306.09;9931492;29;20391;-79
2022/05/29 13:11:26;;;;;;;1.75;0.30;;;;;;;20.77;33.65;97291.75;9949931;29;20047;-74
2022/05/29 13:16:59;;;;;;;0.90;0.30;;;;;;;20.73;31.13;97303.00;9927427;29;20390;-76
2022/05/29 13:22:20;;;;;;;0.60;0.10;;;;;;;20.95;32.10;97293.53;9972659;29;20050;-78
2022/05/29 13:27:40;;;;;;;1.02;0.20;;;;;;;21.47;30.75;97298.75;9974147;29;20046;-78
2022/05/29 13:33:26;;;;;;;0.60;0.20;;;;;;;21.76;29.19;97295.00;9986140;29;20058;-78
2022/05/29 13:38:50;;;;;;;2.13;0.88;;;;;;;21.82;29.13;97289.44;9973563;29;20047;-77
2022/05/29 13:44:40;;;;;;;2.60;0.60;;;;;;;22.23;26.82;97292.91;9987315;29;20089;-77
2022/05/29 13:50:05;;;;;;;0.68;0.10;;;;;;;22.31;27.67;97292.31;9949698;29;20072;-76
2022/05/29 13:55:32;;;;;;;3.58;0.25;;;;;;;22.25;26.32;97296.50;9974454;29;20062;-78
2022/05/29 14:06:38;;;;;;;0.55;0.10;;;;;;;22.74;25.41;97285.78;9975333;29;20442;-81
2022/05/29 14:12:25;;;;;;;2.53;0.30;;;;;;;22.91;23.99;97300.25;9947520;29;20050;-80
2022/05/29 14:17:46;;;;;;;0.63;0.20;;;;;;;22.93;24.57;97289.59;9963315;29;20107;-82
2022/05/29 14:23:25;;;;;;;1.77;0.20;;;;;;;22.51;23.90;97292.59;9959622;29;20054;-81
2022/05/29 14:29:14;;;;;;;0.82;0.20;;;;;;;22.42;23.99;97286.06;9971874;29;20058;-78
2022/05/29 14:34:54;;;;;;;1.52;0.20;;;;;;;22.62;24.04;97284.91;9971863;29;20485;-84
2022/05/29 14:40:47;;;;;;;1.40;0.20;;;;;;;22.81;23.24;97278.03;9971806;29;20401;-83
2022/05/29 14:46:27;;;;;;;1.23;0.20;;;;;;;22.85;22.64;97283.78;9959270;29;20054;-84
2022/05/29 14:52:00;;;;;;;0.85;0.20;;;;;;;22.47;22.71;97279.03;9959279;29;20383;-89
2022/05/29 14:57:27;;;;;;;1.17;0.20;;;;;;;22.10;22.75;97277.06;9958650;29;20397;-80
2022/05/29 15:02:48;;;;;;;1.27;0.22;;;;;;;21.47;23.21;97273.94;9960874;29;20055;-84
2022/05/29 15:13:57;;;;;;;0.70;0.20;;;;;;;20.85;24.14;97274.91;9942795;29;20139;-77
2022/05/29 15:24:08;;;;;;;1.65;0.40;;;;;;;20.46;23.68;97269.81;9945158;29;20058;-82
2022/05/29 15:25:14;;;;;;;2.25;0.30;;;;;;;19.53;24.45;97266.25;9932282;29;20084;-77
2022/05/29 15:30:39;;;;;;;1.67;0.30;;;;;;;19.09;25.58;97280.66;9944504;29;20047;-78
2022/05/29 15:36:24;;;;;;;1.02;0.20;;;;;;;17.49;29.49;97275.84;9932018;29;20436;-83
2022/05/29 15:42:03;;;;;;;1.63;0.50;;;;;;;16.44;32.14;97270.75;9910293;29;20054;-86
2022/05/29 15:47:50;;;;;;;1.52;0.38;;;;;;;15.97;34.71;97260.53;9910497;29;20054;-77
2022/05/29 15:53:35;;;;;;;2.50;0.60;;;;;;;15.75;36.18;97257.56;9904826;29;20051;-76
2022/05/29 15:59:07;;;;;;;1.95;0.45;;;;;;;15.91;36.59;97251.84;9905980;29;20479;-77
2022/05/29 16:04:37;;;;;;;2.03;0.70;;;;;;;16.03;36.32;97252.31;9919838;29;20066;-76
2022/05/29 16:10:00;;;;;;;2.55;0.50;;;;;;;16.27;39.55;97256.06;9894412;30;20052;-75
2022/05/29 16:15:40;;;;;;;2.50;1.13;;;;;;;16.61;40.26;97238.97;9881771;30;20051;-78
2022/05/29 16:21:23;;;;;;;1.65;0.50;;;;;;;16.46;38.67;97234.91;9919610;29;20052;-77
2022/05/29 16:26:52;;;;;;;1.50;0.38;;;;;;;16.34;39.35;97225.31;9908773;29;20043;-76
2022/05/29 16:32:27;;;;;;;0.98;0.30;;;;;;;16.19;39.98;97230.41;9913931;30;20051;-77
2022/05/29 16:51:51;;;;;;;2.00;0.43;;;;;;;15.98;41.38;97245.09;9913378;29;20445;-76
2022/05/29 16:57:21;;;;;;;;;;;;;;;16.25;41.00;97241.91;9913473;29;20048;-77
2022/05/29 17:02:52;;;;;;;6.95;3.00;;;;;;;16.51;40.94;97244.97;9900635;29;19925;-77
2022/05/29 17:08:39;;;;;;;2.53;0.40;;;;;;;16.39;39.70;97244.50;9913184;29;20052;-77
2022/05/29 17:14:00;;;;;;;2.17;0.55;;;;;;;16.15;40.55;97240.81;9912581;30;20043;-79
2022/05/29 17:19:21;;;;;;;2.60;0.60;;;;;;;15.97;40.65;97232.38;9913274;30;20096;-78
2022/05/29 17:33:40;;;;;;;2.42;0.70;;;;;;;15.35;41.90;97239.78;9917782;30;20510;-77
2022/05/29 17:39:25;;;;;;;1.67;0.50;;;;;;;14.93;42.52;97238.72;9892944;29;20055;-83
2022/05/29 17:52:36;;;;;;;1.17;0.40;;;;;;;14.20;43.55;97253.06;10122342;24;20061;-78
2022/05/29 18:43:04;;;;;;;3.00;0.70;;;;;;;13.12;48.09;97247.91;10015838;29;20107;-75
2022/05/29 18:49:39;;;;;;;1.60;0.60;;;;;;;12.80;49.13;97247.75;9970843;29;20103;-75
2022/05/29 18:55:37;;;;;;;1.73;0.65;;;;;;;12.43;49.89;97247.19;9987275;29;20058;-75
2022/05/29 19:00:58;;;;;;;3.10;0.98;;;;;;;12.32;49.02;97241.06;9989490;29;20061;-78
2022/05/29 19:06:27;;;;;;;2.83;1.02;;;;;;;12.26;49.30;97235.19;10043922;29;20121;-83
2022/05/29 19:11:54;;;;;;;2.63;0.90;;;;;;;12.20;49.61;97243.25;10041439;29;20097;-82
2022/05/29 19:22:54;;;;;;;2.60;0.98;;;;;;;12.27;49.88;97249.91;10022553;29;20053;-77
2022/05/29 19:28:15;;;;;;;3.72;1.17;;;;;;;12.13;50.34;97249.84;10020997;29;20061;-78
2022/05/29 19:33:38;;;;;;;3.92;0.90;;;;;;;12.02;51.01;97248.59;10007497;29;20137;-76
2022/05/29 19:46:06;;;;;;;2.15;0.88;;;;;;;12.08;51.03;97256.59;12237825;24;20223;31
2022/05/29 19:51:28;;;;;;;1.60;0.68;;;;;;;11.94;50.94;97250.22;10014474;29;20062;-83
2022/05/29 20:03:10;;;;;;;3.03;1.00;;;;;;;11.83;51.82;97265.00;11167909;24;20037;-84
2022/05/29 20:08:35;;;;;;;2.60;0.80;;;;;;;11.78;51.79;97269.63;10987485;24;20053;-81
2022/05/29 20:14:25;;;;;;;1.58;0.80;;;;;;;11.72;51.92;97270.00;10116302;29;20041;-82
2022/05/29 20:19:47;;;;;;;2.45;0.90;;;;;;;11.71;51.91;97265.03;10093147;29;20117;-77
2022/05/29 20:25:16;;;;;;;3.33;1.20;;;;;;;11.70;52.54;97253.13;10104478;29;20120;-76
2022/05/29 20:30:37;;;;;;;2.63;1.45;;;;;;;11.67;52.96;97256.41;10078041;29;20053;-77
2022/05/29 20:36:09;;;;;;;4.10;1.70;;;;;;;11.60;53.12;97255.34;10066636;29;20057;-76
2022/05/29 20:41:31;;;;;;;2.70;1.42;;;;;;;11.55;53.16;97264.84;10104183;29;20057;-76
2022/05/29 20:52:33;;;;;;;3.78;2.17;;;;;;;11.38;53.63;97251.28;10078266;29;20057;-76
2022/05/29 20:57:58;;;;;;;3.92;1.80;;;;;;;11.27;53.87;97254.88;10039457;29;20049;-76
2022/05/29 21:03:19;;;;;;;4.05;1.00;;;;;;;11.20;53.84;97248.22;10104263;29;20057;-76
2022/05/29 21:08:41;;;;;;;1.65;0.80;;;;;;;11.14;54.05;97254.19;10064580;29;20072;-76
2022/05/29 21:14:31;;;;;;;1.67;0.80;;;;;;;10.99;54.43;97246.31;10063725;29;20053;-76
2022/05/29 21:19:55;;;;;;;2.33;0.85;;;;;;;10.99;54.37;97248.38;10110020;29;20404;-76
2022/05/29 21:25:16;;;;;;;4.93;1.17;;;;;;;10.87;55.08;97254.72;10085117;29;20085;-76
2022/05/29 21:30:37;;;;;;;1.92;0.90;;;;;;;10.89;55.55;97254.09;10096692;29;20490;-76
2022/05/29 21:35:59;;;;;;;3.15;1.17;;;;;;;10.94;55.29;97253.00;10083588;29;20101;-77
2022/05/29 21:41:28;;;;;;;2.70;1.23;;;;;;;10.95;55.63;97256.53;10070164;29;20118;-76
2022/05/29 21:46:52;;;;;;;3.78;1.20;;;;;;;10.94;55.57;97250.22;10097037;29;20059;-76
2022/05/29 21:52:44;;;;;;;4.35;1.30;;;;;;;10.91;55.63;97257.03;10070890;29;20050;-77
2022/05/29 21:58:06;;;;;;;5.32;1.55;;;;;;;10.85;55.92;97259.47;10083150;29;20060;-76
2022/05/29 22:03:28;;;;;;;4.20;1.75;;;;;;;10.76;56.08;97258.25;10108455;29;20389;-76
2022/05/29 22:08:50;;;;;;;4.10;1.40;;;;;;;10.67;56.29;97261.19;10070638;29;20053;-76
2022/05/29 22:14:11;;;;;;;2.38;1.05;;;;;;;10.52;56.53;97262.41;10070142;29;20496;-77
2022/05/29 22:19:37;;;;;;;2.08;0.90;;;;;;;10.44;56.76;97259.84;10070976;29;20430;-77
2022/05/29 22:24:59;;;;;;;2.00;0.77;;;;;;;10.34;57.21;97258.53;10042691;29;20065;-76
2022/05/29 22:30:30;;;;;;;1.92;0.90;;;;;;;10.32;57.38;97254.25;10056084;29;20049;-77
2022/05/29 22:35:53;;;;;;;2.60;1.10;;;;;;;10.22;57.99;97256.44;10081026;29;20052;-77
2022/05/29 22:41:17;;;;;;;4.33;0.90;;;;;;;10.21;58.02;97254.94;10029098;29;20079;-76
2022/05/29 22:46:41;;;;;;;1.87;0.70;;;;;;;10.22;57.98;97247.31;10041991;29;20057;-77
2022/05/29 22:52:07;;;;;;;;;;;;;;;10.21;58.72;97245.84;10067557;29;20053;-77
2022/05/29 22:57:28;;;;;;;5.75;1.30;;;;;;;10.11;58.34;97236.88;10041418;29;19924;-76
2022/05/29 23:02:55;;;;;;;3.05;1.20;;;;;;;10.07;58.19;97231.06;10040718;29;20528;-76
2022/05/29 23:08:17;;;;;;;3.10;1.00;;;;;;;10.02;58.63;97239.16;10054330;29;20065;-76
2022/05/29 23:14:06;;;;;;;3.88;1.20;;;;;;;9.99;58.78;97243.16;10039666;29;20062;-76
2022/05/29 23:19:29;;;;;;;2.92;1.17;;;;;;;10.01;59.29;97232.13;10039918;29;20050;-76
2022/05/29 23:24:56;;;;;;;2.03;0.90;;;;;;;10.06;58.99;97218.44;10028665;29;20058;-76
2022/05/29 23:30:20;;;;;;;4.35;1.08;;;;;;;10.03;58.98;97225.94;10027773;29;20057;-77
2022/05/29 23:35:41;;;;;;;2.38;1.05;;;;;;;10.03;59.07;97220.38;10028288;29;20050;-76
2022/05/29 23:46:46;;;;;;;3.47;1.15;;;;;;;10.16;59.55;97216.28;10044985;29;20057;-76
2022/05/29 23:52:08;;;;;;;3.30;1.45;;;;;;;10.24;59.37;97216.78;10033201;29;20050;-77
2022/05/29 23:57:29;;;;;;;2.20;1.27;;;;;;;10.21;59.64;97207.53;10043851;29;20129;-77
